Time;durP1;ratioP1;P1;durP2;ratioP2;P2;SDS_P1;SDS_P2;PMS_P1;PMS_P2;Temp;Humidity;BMP_temperature;BMP_pressure;BME280_temperature;BME280_humidity;BME280_pressure;Samples;Min_cycle;Max_cycle;Signal;HPM_P1;HPM_P2
2022/09/19 00:00:15;;;;;;;13.72;9.58;;;;;;;;;;1859591;76;21168;-83
2022/09/19 00:02:45;;;;;;;14.95;9.10;;;;;;;;;;1860263;76;21653;-82
2022/09/19 00:05:15;;;;;;;14.45;8.88;;;;;;;;;;1858228;76;21199;-83
2022/09/19 00:07:47;;;;;;;10.35;8.28;;;;;;;;;;1862782;75;21147;-83
2022/09/19 00:10:17;;;;;;;14.98;8.98;;;;;;;;;;1809439;77;21236;-83
2022/09/19 00:12:47;;;;;;;15.23;8.98;;;;;;;;;;1818522;78;21103;-83
2022/09/19 00:15:17;;;;;;;13.85;9.18;;;;;;;;;;1820600;78;22391;-82
2022/09/19 00:17:49;;;;;;;14.53;10.28;;;;;;;;;;1816691;78;21194;-83
2022/09/19 00:20:20;;;;;;;15.23;10.03;;;;;;;;;;1800631;78;21067;-83
2022/09/19 00:25:21;;;;;;;15.20;9.25;;;;;;;;;;1855570;75;21234;-84
2022/09/19 00:27:52;;;;;;;13.85;9.48;;;;;;;;;;1868946;76;21144;-82
2022/09/19 00:30:22;;;;;;;14.83;9.45;;;;;;;;;;1860441;75;21129;-83
2022/09/19 00:32:52;;;;;;;14.35;8.93;;;;;;;;;;1830296;77;21749;-82
2022/09/19 00:35:23;;;;;;;15.95;9.43;;;;;;;;;;1849495;76;21564;-83
2022/09/19 00:37:53;;;;;;;13.28;7.62;;;;;;;;;;1863463;75;21614;-82
2022/09/19 00:40:23;;;;;;;12.90;7.58;;;;;;;;;;1869172;75;21189;-83
2022/09/19 00:42:55;;;;;;;11.40;7.33;;;;;;;;;;1860025;76;21603;-83
2022/09/19 00:45:25;;;;;;;10.53;7.42;;;;;;;;;;1860464;75;21233;-83
2022/09/19 00:47:55;;;;;;;12.47;6.78;;;;;;;;;;1866158;75;21144;-82
2022/09/19 00:50:27;;;;;;;10.03;5.97;;;;;;;;;;1861904;75;21226;-86
2022/09/19 00:52:59;;;;;;;11.10;6.47;;;;;;;;;;1862255;75;21148;-83
2022/09/19 00:55:31;;;;;;;9.80;6.72;;;;;;;;;;1872347;75;21206;-83
2022/09/19 00:58:01;;;;;;;9.95;6.62;;;;;;;;;;1835537;76;21092;-83
2022/09/19 01:00:34;;;;;;;9.35;5.90;;;;;;;;;;1828016;77;21203;-83
2022/09/19 01:03:09;;;;;;;9.33;6.33;;;;;;;;;;1812769;77;21198;-83
2022/09/19 01:05:41;;;;;;;8.38;6.40;;;;;;;;;;1819817;77;21174;-84
2022/09/19 01:08:12;;;;;;;12.40;6.70;;;;;;;;;;1814993;77;21191;-83
2022/09/19 01:10:44;;;;;;;11.22;6.12;;;;;;;;;;1820364;77;21705;-85
2022/09/19 01:13:16;;;;;;;9.93;6.70;;;;;;;;;;1812980;77;21159;-81
2022/09/19 01:15:51;;;;;;;9.63;5.80;;;;;;;;;;1816938;77;21206;-83
2022/09/19 01:18:21;;;;;;;7.67;5.90;;;;;;;;;;1812992;77;21283;-84
2022/09/19 01:20:53;;;;;;;7.80;6.17;;;;;;;;;;1815197;77;21169;-83
2022/09/19 01:23:25;;;;;;;9.95;7.00;;;;;;;;;;1810843;77;21095;-83
2022/09/19 01:25:56;;;;;;;10.50;5.80;;;;;;;;;;1810706;77;21135;-83
2022/09/19 01:28:27;;;;;;;9.35;5.45;;;;;;;;;;1832667;76;21131;-85
2022/09/19 01:33:30;;;;;;;12.10;6.83;;;;;;;;;;1810850;77;21115;-83
2022/09/19 01:36:00;;;;;;;15.30;6.97;;;;;;;;;;1837575;77;21638;-84
2022/09/19 01:38:35;;;;;;;6.53;4.95;;;;;;;;;;1839246;76;21235;-83
2022/09/19 01:41:03;;;;;;;7.22;4.58;;;;;;;;;;1819033;77;21155;-84
2022/09/19 01:43:33;;;;;;;8.40;5.30;;;;;;;;;;1832468;77;21096;-84
2022/09/19 01:46:04;;;;;;;9.50;4.75;;;;;;;;;;1835613;77;21164;-84
2022/09/19 01:48:36;;;;;;;8.95;6.10;;;;;;;;;;1837807;76;21157;-85
2022/09/19 01:51:10;;;;;;;9.83;5.37;;;;;;;;;;1799372;77;21792;-84
2022/09/19 01:53:40;;;;;;;6.45;4.28;;;;;;;;;;1795565;79;21230;-84
2022/09/19 01:56:11;;;;;;;7.55;4.22;;;;;;;;;;1817128;77;21159;-84
2022/09/19 01:58:43;;;;;;;5.95;4.03;;;;;;;;;;1816565;77;21132;-85
2022/09/19 02:01:16;;;;;;;33.18;7.78;;;;;;;;;;1837994;77;21815;-83
2022/09/19 03:29:18;;;;;;;7.03;2.75;;;;;;;;;;1889925;74;21592;-75
2022/09/19 03:31:50;;;;;;;4.78;2.37;;;;;;;;;;1908293;74;21132;-75
2022/09/19 03:34:20;;;;;;;8.55;2.65;;;;;;;;;;1901736;74;21080;-77
2022/09/19 03:36:50;;;;;;;7.25;3.22;;;;;;;;;;1899109;75;21222;-77
2022/09/19 03:39:21;;;;;;;7.90;2.60;;;;;;;;;;1892648;75;21199;-75
2022/09/19 03:41:52;;;;;;;4.75;2.47;;;;;;;;;;1893207;75;21135;-76
2022/09/19 03:44:22;;;;;;;4.70;2.60;;;;;;;;;;1894781;75;21140;-75
2022/09/19 03:46:52;;;;;;;5.53;2.72;;;;;;;;;;1898267;75;21139;-75
2022/09/19 03:49:23;;;;;;;4.22;2.42;;;;;;;;;;1886773;74;21140;-75
2022/09/19 03:51:53;;;;;;;5.30;2.22;;;;;;;;;;1892286;75;21120;-75
2022/09/19 03:54:23;;;;;;;4.90;2.30;;;;;;;;;;1895360;73;21657;-75
2022/09/19 03:56:53;;;;;;;4.87;2.30;;;;;;;;;;1888158;75;21069;-75
2022/09/19 03:59:23;;;;;;;3.77;2.50;;;;;;;;;;1886740;75;21138;-75
2022/09/19 04:01:54;;;;;;;6.97;2.80;;;;;;;;;;1903553;74;21171;-75
2022/09/19 04:04:25;;;;;;;5.78;2.50;;;;;;;;;;1893686;75;21144;-75
2022/09/19 04:06:56;;;;;;;4.25;2.92;;;;;;;;;;1888829;75;21128;-75
2022/09/19 04:09:26;;;;;;;5.45;3.05;;;;;;;;;;1887433;75;21575;-74
2022/09/19 04:11:57;;;;;;;4.90;2.60;;;;;;;;;;1894178;74;21167;-76
2022/09/19 04:14:30;;;;;;;5.67;2.58;;;;;;;;;;1890591;75;21199;-74
2022/09/19 04:17:00;;;;;;;5.30;2.33;;;;;;;;;;1893166;75;21654;-74
2022/09/19 04:19:32;;;;;;;5.42;3.08;;;;;;;;;;1890377;75;21072;-75
2022/09/19 04:22:02;;;;;;;5.30;2.83;;;;;;;;;;1891188;73;21045;-74
2022/09/19 04:24:33;;;;;;;4.25;2.77;;;;;;;;;;1893462;75;21175;-73
2022/09/19 04:27:06;;;;;;;5.75;3.10;;;;;;;;;;1887715;73;21136;-75
2022/09/19 04:29:35;;;;;;;4.25;2.47;;;;;;;;;;1893403;75;21065;-75
2022/09/19 04:32:05;;;;;;;5.72;3.12;;;;;;;;;;1906249;74;21152;-75
2022/09/19 04:34:35;;;;;;;6.30;3.00;;;;;;;;;;1888253;75;21136;-75
2022/09/19 04:37:06;;;;;;;4.90;3.20;;;;;;;;;;1892371;75;21670;-76
2022/09/19 04:39:37;;;;;;;4.97;3.10;;;;;;;;;;1898697;75;21104;-77
2022/09/19 04:42:07;;;;;;;4.53;2.27;;;;;;;;;;1859202;76;21183;-75
2022/09/19 04:44:38;;;;;;;4.67;2.20;;;;;;;;;;1900683;75;21729;-78
2022/09/19 04:47:10;;;;;;;3.00;2.05;;;;;;;;;;1897118;75;21114;-79
2022/09/19 04:49:39;;;;;;;4.90;2.70;;;;;;;;;;1841069;77;21125;-78
2022/09/19 04:52:12;;;;;;;3.75;2.40;;;;;;;;;;1890371;75;21121;-76
2022/09/19 04:54:42;;;;;;;3.98;2.00;;;;;;;;;;1895174;75;21128;-75
2022/09/19 04:57:13;;;;;;;5.83;2.25;;;;;;;;;;1888383;73;21175;-75
2022/09/19 04:59:43;;;;;;;4.25;2.02;;;;;;;;;;1894993;75;21120;-76
2022/09/19 05:02:14;;;;;;;3.20;2.15;;;;;;;;;;1892248;75;21139;-75
2022/09/19 05:04:45;;;;;;;5.17;2.50;;;;;;;;;;1865161;75;21180;-76
2022/09/19 05:07:15;;;;;;;5.62;1.80;;;;;;;;;;1892542;75;21200;-76
2022/09/19 05:09:46;;;;;;;4.05;2.25;;;;;;;;;;1895176;75;21112;-75
2022/09/19 05:12:17;;;;;;;3.83;2.60;;;;;;;;;;1893355;75;21113;-76
2022/09/19 05:14:48;;;;;;;4.22;1.85;;;;;;;;;;1892742;75;21169;-76
2022/09/19 05:17:18;;;;;;;4.53;2.00;;;;;;;;;;1888953;75;21085;-75
2022/09/19 05:19:49;;;;;;;4.42;2.10;;;;;;;;;;1892366;75;21063;-75
2022/09/19 05:22:20;;;;;;;4.22;2.15;;;;;;;;;;1886725;75;21164;-76
2022/09/19 05:24:52;;;;;;;3.05;1.95;;;;;;;;;;1893158;75;21616;-76
2022/09/19 05:27:22;;;;;;;3.50;1.70;;;;;;;;;;1894622;75;21175;-76
2022/09/19 05:29:55;;;;;;;4.78;1.98;;;;;;;;;;1900558;75;21145;-76
2022/09/19 05:32:25;;;;;;;3.85;1.72;;;;;;;;;;1887502;75;21673;-76
2022/09/19 05:34:56;;;;;;;4.03;2.15;;;;;;;;;;1865162;76;21221;-75
2022/09/19 05:37:27;;;;;;;3.90;2.30;;;;;;;;;;1859543;76;21115;-74
2022/09/19 05:39:58;;;;;;;7.12;2.90;;;;;;;;;;1862352;75;21163;-74
2022/09/19 05:42:28;;;;;;;4.62;3.08;;;;;;;;;;1830684;77;21095;-74
2022/09/19 05:44:58;;;;;;;7.00;2.85;;;;;;;;;;1895130;73;21196;-74
2022/09/19 05:47:29;;;;;;;7.97;3.85;;;;;;;;;;1902365;74;21186;-76
2022/09/19 05:49:59;;;;;;;6.35;3.15;;;;;;;;;;1907747;74;21156;-76
2022/09/19 05:55:01;;;;;;;7.47;3.10;;;;;;;;;;1899719;74;21182;-75
2022/09/19 08:14:13;;;;;;;4.35;2.27;;;;;;;;;;1886987;72;21144;-72
2022/09/19 08:16:44;;;;;;;6.47;2.30;;;;;;;;;;1924426;74;21081;-74
2022/09/19 08:22:10;;;;;;;;;;;;;;;;;;1913839;72;21191;-72
2022/09/19 08:24:40;;;;;;;4.33;2.67;;;;;;;;;;1943538;74;20190;-71
2022/09/19 08:27:10;;;;;;;4.90;1.98;;;;;;;;;;1935630;74;21128;-72
2022/09/19 08:29:40;;;;;;;4.17;1.92;;;;;;;;;;1904654;75;21205;-71
2022/09/19 08:32:11;;;;;;;6.97;4.95;;;;;;;;;;1875218;75;21081;-71
2022/09/19 08:34:41;;;;;;;6.25;2.90;;;;;;;;;;1893235;75;21160;-73
2022/09/19 08:37:12;;;;;;;9.55;2.20;;;;;;;;;;1892087;74;21147;-72
2022/09/19 08:40:15;;;;;;;4.90;2.40;;;;;;;;;;1914036;74;21162;-73
2022/09/19 08:42:15;;;;;;;6.20;2.20;;;;;;;;;;1904346;73;21100;-73
2022/09/19 08:44:46;;;;;;;5.75;2.33;;;;;;;;;;1930217;73;21041;-73
2022/09/19 08:47:18;;;;;;;5.15;2.72;;;;;;;;;;1931430;73;21104;-73
2022/09/19 08:49:50;;;;;;;5.72;2.27;;;;;;;;;;1893807;75;21772;-72
2022/09/19 08:52:22;;;;;;;6.95;2.60;;;;;;;;;;1889354;75;21076;-72
2022/09/19 08:54:53;;;;;;;8.93;3.10;;;;;;;;;;1933591;72;21175;-72
2022/09/19 08:57:27;;;;;;;11.15;3.58;;;;;;;;;;1930189;74;21191;-73
2022/09/19 08:59:58;;;;;;;5.35;2.08;;;;;;;;;;1886553;75;21162;-73
2022/09/19 09:02:29;;;;;;;6.37;2.55;;;;;;;;;;1920468;72;21249;-72
2022/09/19 09:05:01;;;;;;;5.45;2.55;;;;;;;;;;1920963;73;21163;-74
2022/09/19 09:07:32;;;;;;;6.35;2.98;;;;;;;;;;1886621;75;21179;-74
2022/09/19 09:10:03;;;;;;;5.00;2.52;;;;;;;;;;1890778;74;21100;-74
2022/09/19 09:12:35;;;;;;;4.15;2.47;;;;;;;;;;1876878;75;21188;-74
2022/09/19 09:15:06;;;;;;;7.62;2.87;;;;;;;;;;1892373;75;21509;-74
2022/09/19 09:17:39;;;;;;;6.72;3.20;;;;;;;;;;1894243;75;21137;-73
2022/09/19 09:20:10;;;;;;;8.33;3.65;;;;;;;;;;1893323;75;21061;-74
2022/09/19 09:22:42;;;;;;;4.10;3.00;;;;;;;;;;1849842;76;21651;-74
2022/09/19 09:25:15;;;;;;;7.75;3.30;;;;;;;;;;1877296;75;21741;-74
2022/09/19 09:27:47;;;;;;;6.33;2.77;;;;;;;;;;1874828;75;21547;-73
2022/09/19 09:30:19;;;;;;;6.62;3.45;;;;;;;;;;1836298;77;21225;-73
2022/09/19 09:32:50;;;;;;;5.05;3.25;;;;;;;;;;1882850;75;21133;-74
2022/09/19 09:35:26;;;;;;;5.50;2.90;;;;;;;;;;1878210;75;21209;-74
2022/09/19 09:38:01;;;;;;;5.22;2.67;;;;;;;;;;1839123;76;21638;-73
2022/09/19 09:43:05;;;;;;;6.80;3.17;;;;;;;;;;1883121;74;21105;-73
2022/09/19 09:45:36;;;;;;;7.10;3.20;;;;;;;;;;1876087;75;21132;-73
2022/09/19 09:48:05;;;;;;;8.23;3.25;;;;;;;;;;1858202;77;21140;-73
2022/09/19 09:50:37;;;;;;;6.42;3.08;;;;;;;;;;1851576;77;21129;-73
2022/09/19 09:53:08;;;;;;;5.05;3.60;;;;;;;;;;1846584;77;21565;-73
2022/09/19 09:58:12;;;;;;;8.83;3.55;;;;;;;;;;1843387;77;21145;-75
2022/09/19 10:05:49;;;;;;;6.03;3.30;;;;;;;;;;1883739;75;21104;-73
2022/09/19 10:08:21;;;;;;;6.67;3.30;;;;;;;;;;1832656;77;21564;-73
2022/09/19 10:10:53;;;;;;;5.85;3.15;;;;;;;;;;1828050;77;21115;-72
2022/09/19 10:13:25;;;;;;;5.03;3.10;;;;;;;;;;1844125;76;21199;-74
2022/09/19 10:15:56;;;;;;;6.78;2.92;;;;;;;;;;1843910;77;21444;-71
2022/09/19 10:18:28;;;;;;;6.35;3.50;;;;;;;;;;1883113;74;21125;-74
2022/09/19 10:20:58;;;;;;;5.70;3.95;;;;;;;;;;1880214;75;21161;-72
2022/09/19 10:23:30;;;;;;;9.90;4.90;;;;;;;;;;1905357;74;21072;-73
2022/09/19 10:26:06;;;;;;;7.78;3.77;;;;;;;;;;1886591;75;21120;-76
2022/09/19 10:28:48;;;;;;;7.00;4.20;;;;;;;;;;1878800;75;21106;-73
2022/09/19 10:31:14;;;;;;;7.35;3.98;;;;;;;;;;1870902;75;21176;-73
2022/09/19 10:33:47;;;;;;;7.60;4.30;;;;;;;;;;1882074;75;21722;-73
2022/09/19 10:36:19;;;;;;;6.62;3.90;;;;;;;;;;1884203;75;21231;-74
2022/09/19 10:38:54;;;;;;;6.85;3.85;;;;;;;;;;1883792;75;21219;-74
2022/09/19 10:41:23;;;;;;;9.73;4.17;;;;;;;;;;1881400;75;21523;-73
2022/09/19 10:43:54;;;;;;;9.03;3.37;;;;;;;;;;1883192;75;21179;-73
2022/09/19 10:46:25;;;;;;;6.20;3.58;;;;;;;;;;1881209;75;21202;-72
2022/09/19 10:48:57;;;;;;;9.23;3.58;;;;;;;;;;1877128;75;21596;-74
2022/09/19 10:51:29;;;;;;;7.78;3.33;;;;;;;;;;1881934;75;21148;-73
2022/09/19 10:54:00;;;;;;;4.75;3.35;;;;;;;;;;1880954;75;21099;-72
2022/09/19 10:56:31;;;;;;;8.68;3.60;;;;;;;;;;1884683;75;21584;-74
2022/09/19 10:59:03;;;;;;;7.65;3.80;;;;;;;;;;1879723;75;21592;-74
2022/09/19 11:01:34;;;;;;;6.37;3.15;;;;;;;;;;1887384;75;21106;-73
2022/09/19 11:04:06;;;;;;;5.58;3.52;;;;;;;;;;1883356;75;22524;-73
2022/09/19 11:06:36;;;;;;;7.70;3.50;;;;;;;;;;1886021;75;21202;-73
2022/09/19 11:09:07;;;;;;;6.60;2.95;;;;;;;;;;1884801;75;21161;-73
2022/09/19 11:11:45;;;;;;;3.22;2.08;;;;;;;;;;1862665;75;21115;-73
2022/09/19 11:14:12;;;;;;;6.35;2.33;;;;;;;;;;1878082;75;21105;-72
2022/09/19 11:16:44;;;;;;;4.03;2.02;;;;;;;;;;1906126;74;21152;-73
2022/09/19 11:19:16;;;;;;;5.22;1.70;;;;;;;;;;1919459;74;21210;-73
2022/09/19 11:21:48;;;;;;;3.10;1.65;;;;;;;;;;1886389;75;21911;-74
2022/09/19 11:24:18;;;;;;;3.37;1.70;;;;;;;;;;1889744;73;21172;-73
2022/09/19 11:26:49;;;;;;;4.55;2.10;;;;;;;;;;1924029;73;21673;-74
2022/09/19 11:29:21;;;;;;;5.40;1.70;;;;;;;;;;1903673;74;21230;-73
2022/09/19 11:32:03;;;;;;;5.22;2.02;;;;;;;;;;1933012;73;21135;-73
2022/09/19 11:34:26;;;;;;;4.17;2.33;;;;;;;;;;1921307;73;21064;-73
2022/09/19 11:36:59;;;;;;;4.08;2.12;;;;;;;;;;1926140;72;21115;-73
2022/09/19 11:39:30;;;;;;;4.15;2.20;;;;;;;;;;1894215;74;21624;-73
2022/09/19 11:42:03;;;;;;;5.72;2.27;;;;;;;;;;1925036;73;21598;-73
2022/09/19 11:44:35;;;;;;;5.33;2.17;;;;;;;;;;1938700;73;21147;-74
2022/09/19 11:47:07;;;;;;;5.90;2.15;;;;;;;;;;1928944;74;21124;-73
2022/09/19 11:49:39;;;;;;;5.05;1.67;;;;;;;;;;1932818;73;21155;-74
2022/09/19 11:52:11;;;;;;;6.08;2.30;;;;;;;;;;1931217;72;21577;-74
2022/09/19 11:54:44;;;;;;;5.03;1.95;;;;;;;;;;1933526;72;21073;-73
2022/09/19 11:57:13;;;;;;;4.72;2.22;;;;;;;;;;1920658;74;21174;-72
2022/09/19 11:59:45;;;;;;;5.85;1.95;;;;;;;;;;1934221;73;21572;-74
2022/09/19 12:02:20;;;;;;;3.35;1.60;;;;;;;;;;1931549;72;21100;-74
2022/09/19 12:04:50;;;;;;;4.03;1.52;;;;;;;;;;1890566;74;21132;-73
2022/09/19 12:07:25;;;;;;;2.77;1.45;;;;;;;;;;1933373;73;21140;-72
2022/09/19 12:10:04;;;;;;;4.97;1.92;;;;;;;;;;1913012;74;21155;-73
2022/09/19 12:12:37;;;;;;;5.78;1.80;;;;;;;;;;1872612;75;21112;-73
2022/09/19 12:15:09;;;;;;;5.28;2.00;;;;;;;;;;1906718;74;21166;-74
2022/09/19 12:17:44;;;;;;;4.47;1.60;;;;;;;;;;1924684;73;21089;-73
2022/09/19 12:20:14;;;;;;;4.28;1.90;;;;;;;;;;1898003;74;21120;-73
2022/09/19 12:22:45;;;;;;;3.60;2.05;;;;;;;;;;1885761;73;21073;-73
2022/09/19 12:25:20;;;;;;;5.53;1.90;;;;;;;;;;1927589;71;21116;-75
2022/09/19 12:27:50;;;;;;;3.67;2.10;;;;;;;;;;1915898;74;21186;-74
2022/09/19 12:30:22;;;;;;;3.25;2.10;;;;;;;;;;1905750;74;21054;-73
2022/09/19 12:32:56;;;;;;;3.70;1.90;;;;;;;;;;1906247;74;21112;-73
2022/09/19 12:35:30;;;;;;;4.55;2.33;;;;;;;;;;1895706;74;21128;-73
2022/09/19 12:38:00;;;;;;;4.95;2.08;;;;;;;;;;1901433;74;21516;-73
2022/09/19 12:40:33;;;;;;;3.87;1.75;;;;;;;;;;1922789;74;21120;-73
2022/09/19 12:43:06;;;;;;;3.37;1.82;;;;;;;;;;1923372;74;21246;-73
2022/09/19 12:45:41;;;;;;;3.77;2.00;;;;;;;;;;1908241;74;21206;-73
2022/09/19 12:48:14;;;;;;;3.92;1.80;;;;;;;;;;1908894;74;21074;-73
2022/09/19 12:50:45;;;;;;;3.92;2.05;;;;;;;;;;1918070;74;21123;-73
2022/09/19 12:53:18;;;;;;;4.55;1.90;;;;;;;;;;1924419;74;21198;-73
2022/09/19 12:55:50;;;;;;;4.40;2.10;;;;;;;;;;1905750;74;21106;-71
2022/09/19 12:58:23;;;;;;;6.67;2.22;;;;;;;;;;1907936;74;21117;-72
2022/09/19 13:00:55;;;;;;;5.22;2.22;;;;;;;;;;1910704;74;21111;-73
2022/09/19 13:03:26;;;;;;;4.62;2.00;;;;;;;;;;1913765;74;21148;-73
2022/09/19 13:05:59;;;;;;;3.92;2.30;;;;;;;;;;1926489;74;21543;-72
2022/09/19 13:08:31;;;;;;;4.83;1.98;;;;;;;;;;1890629;74;21147;-73
2022/09/19 13:11:02;;;;;;;4.95;2.10;;;;;;;;;;1865946;76;21053;-73
2022/09/19 13:13:34;;;;;;;4.97;2.00;;;;;;;;;;1861661;75;21140;-74
2022/09/19 13:16:05;;;;;;;5.10;2.05;;;;;;;;;;1925906;73;21074;-73
2022/09/19 13:23:40;;;;;;;3.77;2.17;;;;;;;;;;1926438;74;21070;-87
2022/09/19 13:28:46;;;;;;;4.22;2.40;;;;;;;;;;1928450;73;21151;-87
2022/09/19 13:31:18;;;;;;;5.10;2.77;;;;;;;;;;1910832;74;21253;-85
2022/09/19 13:33:49;;;;;;;7.17;2.70;;;;;;;;;;1893755;75;21638;-84
2022/09/19 13:36:21;;;;;;;4.20;2.30;;;;;;;;;;1950939;72;21080;-86
2022/09/19 13:38:53;;;;;;;6.35;3.33;;;;;;;;;;1930205;74;21561;-84
2022/09/19 13:41:23;;;;;;;5.87;2.85;;;;;;;;;;1928553;74;21148;-83
2022/09/19 13:43:53;;;;;;;4.15;2.42;;;;;;;;;;1942013;74;21697;-84
2022/09/19 13:46:23;;;;;;;6.75;3.08;;;;;;;;;;1906242;75;21113;-85
2022/09/19 13:48:56;;;;;;;3.92;2.55;;;;;;;;;;1944936;72;21130;-85
2022/09/19 13:51:28;;;;;;;9.05;2.98;;;;;;;;;;1915869;73;21238;-84
2022/09/19 13:54:00;;;;;;;4.17;3.10;;;;;;;;;;1886101;74;21136;-83
2022/09/19 13:56:34;;;;;;;4.75;2.87;;;;;;;;;;1921665;74;21158;-83
2022/09/19 13:59:05;;;;;;;7.15;2.62;;;;;;;;;;1921312;72;21581;-84
2022/09/19 14:01:39;;;;;;;6.40;2.52;;;;;;;;;;1892717;75;21125;-86
2022/09/19 14:06:43;;;;;;;7.12;2.62;;;;;;;;;;1910592;72;21214;-84
2022/09/19 14:09:19;;;;;;;4.28;2.47;;;;;;;;;;1914549;72;21185;-85
2022/09/19 14:11:58;;;;;;;4.28;2.65;;;;;;;;;;1924120;72;21131;-85
2022/09/19 14:14:40;;;;;;;7.15;2.85;;;;;;;;;;1887946;75;21100;-85
2022/09/19 14:17:14;;;;;;;5.10;2.27;;;;;;;;;;1892031;75;21551;-85
2022/09/19 14:19:48;;;;;;;8.45;2.90;;;;;;;;;;1937941;72;21615;-84
2022/09/19 14:22:19;;;;;;;4.20;2.12;;;;;;;;;;1930013;72;21245;-86
2022/09/19 14:24:50;;;;;;;7.30;2.15;;;;;;;;;;1938745;72;21637;-85
2022/09/19 14:27:22;;;;;;;5.58;2.40;;;;;;;;;;1937456;74;21174;-85
2022/09/19 14:29:52;;;;;;;5.12;2.47;;;;;;;;;;1919002;74;21520;-85
2022/09/19 14:32:22;;;;;;;5.62;2.25;;;;;;;;;;1936646;72;21072;-85
2022/09/19 14:34:54;;;;;;;4.45;2.45;;;;;;;;;;1931802;72;21144;-85
2022/09/19 14:37:29;;;;;;;3.05;2.17;;;;;;;;;;1925957;72;21151;-84
2022/09/19 14:39:58;;;;;;;5.45;2.33;;;;;;;;;;1940156;72;21088;-83
2022/09/19 14:42:30;;;;;;;4.53;1.98;;;;;;;;;;1855553;74;21257;-84
2022/09/19 14:45:02;;;;;;;5.10;2.20;;;;;;;;;;1890653;74;21216;-84
2022/09/19 14:47:35;;;;;;;6.15;2.47;;;;;;;;;;1922187;73;21116;-85
2022/09/19 14:50:07;;;;;;;6.17;2.50;;;;;;;;;;1926631;72;21222;-85
2022/09/19 14:52:41;;;;;;;4.37;2.10;;;;;;;;;;1939473;72;21139;-85
2022/09/19 14:55:13;;;;;;;3.45;2.20;;;;;;;;;;1940965;72;21080;-83
2022/09/19 14:57:46;;;;;;;4.42;2.33;;;;;;;;;;1920307;72;21647;-84
2022/09/19 15:00:18;;;;;;;6.70;2.27;;;;;;;;;;1933832;73;21068;-86
2022/09/19 15:02:50;;;;;;;6.70;2.17;;;;;;;;;;1936648;72;21076;-86
2022/09/19 15:05:22;;;;;;;5.00;2.33;;;;;;;;;;1876390;76;21148;-85
2022/09/19 15:08:04;;;;;;;5.58;2.30;;;;;;;;;;1887649;75;21619;-85
2022/09/19 15:10:37;;;;;;;3.52;2.15;;;;;;;;;;1964438;72;21271;-84
2022/09/19 15:13:08;;;;;;;4.30;2.20;;;;;;;;;;1916862;72;21207;-85
2022/09/19 15:15:40;;;;;;;3.92;2.27;;;;;;;;;;1894124;74;21136;-85
2022/09/19 15:18:18;;;;;;;5.17;2.60;;;;;;;;;;1936433;74;21150;-84
2022/09/19 15:20:49;;;;;;;3.83;2.00;;;;;;;;;;1931188;74;21148;-84
2022/09/19 15:23:20;;;;;;;5.08;2.30;;;;;;;;;;1929486;73;21053;-84
2022/09/19 15:25:51;;;;;;;4.40;2.22;;;;;;;;;;1924230;72;21076;-84
2022/09/19 15:28:25;;;;;;;3.77;2.27;;;;;;;;;;1881863;75;21225;-84
2022/09/19 15:31:00;;;;;;;6.15;2.27;;;;;;;;;;1883406;74;21112;-85
2022/09/19 15:33:29;;;;;;;4.67;2.58;;;;;;;;;;1893670;73;21075;-84
2022/09/19 15:36:04;;;;;;;3.90;2.30;;;;;;;;;;1887057;75;21209;-85
2022/09/19 15:38:37;;;;;;;4.87;2.50;;;;;;;;;;1891568;75;21152;-85
2022/09/19 15:41:09;;;;;;;4.97;2.45;;;;;;;;;;1887017;74;21124;-84
2022/09/19 15:43:40;;;;;;;7.05;3.05;;;;;;;;;;1897632;73;21066;-82
2022/09/19 15:46:13;;;;;;;4.15;2.35;;;;;;;;;;1887824;73;21621;-84
2022/09/19 15:48:47;;;;;;;5.83;2.90;;;;;;;;;;1881159;75;21605;-84
2022/09/19 15:51:23;;;;;;;7.03;2.98;;;;;;;;;;1891677;73;21116;-84
2022/09/19 15:53:54;;;;;;;3.90;2.52;;;;;;;;;;1888271;75;21688;-82
2022/09/19 15:56:25;;;;;;;4.40;2.62;;;;;;;;;;1898369;74;21113;-85
2022/09/19 15:59:00;;;;;;;5.92;2.62;;;;;;;;;;1905655;75;21136;-84
2022/09/19 16:01:31;;;;;;;5.30;2.52;;;;;;;;;;1885139;74;21052;-83
2022/09/19 16:04:01;;;;;;;4.47;2.35;;;;;;;;;;1881361;75;21137;-83
2022/09/19 16:09:07;;;;;;;5.70;2.60;;;;;;;;;;1886041;75;21097;-84
2022/09/19 16:11:43;;;;;;;5.90;3.05;;;;;;;;;;1890702;74;21121;-85
2022/09/19 16:14:14;;;;;;;6.78;2.72;;;;;;;;;;1881906;75;21195;-85
2022/09/19 16:16:49;;;;;;;4.42;2.50;;;;;;;;;;1889689;75;21520;-85
2022/09/19 16:19:19;;;;;;;4.28;2.58;;;;;;;;;;1894890;74;21111;-84
2022/09/19 16:21:51;;;;;;;4.42;3.20;;;;;;;;;;1889347;73;21544;-85
2022/09/19 16:24:22;;;;;;;5.70;3.08;;;;;;;;;;1849012;77;21162;-84
2022/09/19 16:26:57;;;;;;;6.05;2.75;;;;;;;;;;1888408;74;21475;-83
2022/09/19 16:29:31;;;;;;;6.17;2.87;;;;;;;;;;1897012;75;21579;-84
2022/09/19 16:32:03;;;;;;;4.87;2.60;;;;;;;;;;1872393;74;21159;-83
2022/09/19 16:34:34;;;;;;;5.42;2.45;;;;;;;;;;1869632;75;21108;-83
2022/09/19 16:37:05;;;;;;;5.03;2.80;;;;;;;;;;1867449;76;21139;-84
2022/09/19 16:39:35;;;;;;;5.78;3.08;;;;;;;;;;1879297;75;21073;-85
2022/09/19 16:42:07;;;;;;;6.35;2.95;;;;;;;;;;1835326;78;21449;-84
2022/09/19 16:44:37;;;;;;;7.15;3.10;;;;;;;;;;1905465;74;21195;-85
2022/09/19 16:47:08;;;;;;;4.20;2.47;;;;;;;;;;1899914;75;21144;-84
2022/09/19 16:49:39;;;;;;;4.42;2.62;;;;;;;;;;1835051;77;21063;-84
2022/09/19 16:52:10;;;;;;;6.72;2.77;;;;;;;;;;1902686;75;21124;-83
2022/09/19 16:54:40;;;;;;;3.80;2.70;;;;;;;;;;1904425;74;21862;-86
2022/09/19 16:57:17;;;;;;;5.03;2.37;;;;;;;;;;1905319;73;21529;-83
2022/09/19 16:59:47;;;;;;;3.80;2.33;;;;;;;;;;1906201;75;21222;-85
2022/09/19 17:02:19;;;;;;;5.30;2.35;;;;;;;;;;1867035;75;21689;-84
2022/09/19 17:04:50;;;;;;;4.45;2.62;;;;;;;;;;1900215;74;21568;-84
2022/09/19 17:07:22;;;;;;;5.53;2.70;;;;;;;;;;1908516;74;21504;-85
2022/09/19 17:09:56;;;;;;;4.37;2.37;;;;;;;;;;1905838;75;21131;-84
2022/09/19 17:12:26;;;;;;;3.83;2.50;;;;;;;;;;1872825;75;21545;-85
2022/09/19 17:15:00;;;;;;;7.37;3.05;;;;;;;;;;1870295;75;21151;-83
2022/09/19 17:17:31;;;;;;;4.90;3.12;;;;;;;;;;1905141;75;21044;-85
2022/09/19 17:20:02;;;;;;;5.53;3.10;;;;;;;;;;1906211;74;21116;-85
2022/09/19 17:22:35;;;;;;;7.22;3.15;;;;;;;;;;1878522;74;21085;-85
2022/09/19 17:25:06;;;;;;;6.55;2.90;;;;;;;;;;1860252;77;21171;-85
2022/09/19 17:27:36;;;;;;;5.15;2.65;;;;;;;;;;1876391;73;21163;-84
2022/09/19 17:30:06;;;;;;;6.03;2.87;;;;;;;;;;1887756;75;21218;-85
2022/09/19 17:32:36;;;;;;;5.45;2.98;;;;;;;;;;1926796;73;21105;-84
2022/09/19 17:35:08;;;;;;;8.15;2.85;;;;;;;;;;1875033;75;21217;-84
2022/09/19 17:37:38;;;;;;;5.90;2.85;;;;;;;;;;1856662;76;21172;-85
2022/09/19 17:40:10;;;;;;;4.85;3.05;;;;;;;;;;1892996;75;21112;-84
2022/09/19 17:42:40;;;;;;;7.00;2.87;;;;;;;;;;1887335;74;21223;-84
2022/09/19 17:45:11;;;;;;;4.78;2.70;;;;;;;;;;1881821;75;21171;-86
2022/09/19 17:47:41;;;;;;;6.20;2.70;;;;;;;;;;1842646;77;21512;-83
2022/09/19 17:50:12;;;;;;;4.78;3.10;;;;;;;;;;1893737;75;21112;-84
2022/09/19 17:52:44;;;;;;;6.15;2.77;;;;;;;;;;1922384;73;21160;-84
2022/09/19 17:55:14;;;;;;;7.30;2.85;;;;;;;;;;1882467;74;21123;-84
2022/09/19 17:57:44;;;;;;;8.30;3.10;;;;;;;;;;1894607;74;21178;-85
2022/09/19 18:00:15;;;;;;;7.30;2.67;;;;;;;;;;1843473;76;21257;-83
2022/09/19 18:05:22;;;;;;;7.17;3.12;;;;;;;;;;1886371;75;21691;-83
2022/09/19 18:07:57;;;;;;;3.50;2.70;;;;;;;;;;1889132;75;21167;-83
2022/09/19 18:10:24;;;;;;;6.70;3.17;;;;;;;;;;1891388;74;21124;-83
2022/09/19 18:12:55;;;;;;;5.83;2.80;;;;;;;;;;1893201;75;21078;-84
2022/09/19 18:15:25;;;;;;;5.60;3.10;;;;;;;;;;1883390;75;21069;-84
2022/09/19 18:17:56;;;;;;;11.35;3.60;;;;;;;;;;1871359;75;21118;-84
2022/09/19 18:20:28;;;;;;;7.20;3.30;;;;;;;;;;1829036;78;21167;-84
2022/09/19 18:22:59;;;;;;;5.10;3.15;;;;;;;;;;1863208;76;21200;-84
2022/09/19 18:25:31;;;;;;;4.87;3.17;;;;;;;;;;1872095;76;21136;-84
2022/09/19 18:28:00;;;;;;;5.50;3.25;;;;;;;;;;1868205;75;21054;-85
2022/09/19 18:30:30;;;;;;;7.08;3.98;;;;;;;;;;1930214;72;21134;-82
2022/09/19 18:33:05;;;;;;;7.42;3.52;;;;;;;;;;1891600;75;21756;-83
2022/09/19 18:35:33;;;;;;;9.50;3.00;;;;;;;;;;1940801;73;21112;-81
2022/09/19 18:38:03;;;;;;;4.55;3.02;;;;;;;;;;1928899;74;21165;-84
2022/09/19 18:40:33;;;;;;;6.70;3.52;;;;;;;;;;1939259;74;21166;-83
2022/09/19 18:43:04;;;;;;;8.48;3.50;;;;;;;;;;1894775;74;21167;-83
2022/09/19 18:45:34;;;;;;;6.37;3.20;;;;;;;;;;1875766;75;21136;-83
2022/09/19 18:48:04;;;;;;;7.83;3.55;;;;;;;;;;1911174;72;21057;-83
2022/09/19 18:50:35;;;;;;;5.10;3.22;;;;;;;;;;1934119;74;21617;-83
2022/09/19 18:53:08;;;;;;;4.95;3.00;;;;;;;;;;1875049;75;21210;-85
2022/09/19 18:55:38;;;;;;;5.60;2.95;;;;;;;;;;1877258;75;21408;-83
2022/09/19 18:58:09;;;;;;;5.62;2.65;;;;;;;;;;1879892;74;21222;-82
2022/09/19 19:00:41;;;;;;;9.53;3.40;;;;;;;;;;1914775;73;21190;-84
2022/09/19 19:03:12;;;;;;;5.40;2.90;;;;;;;;;;1965059;72;21528;-84
2022/09/19 19:05:43;;;;;;;6.33;2.87;;;;;;;;;;1888264;74;21150;-84
2022/09/19 19:08:15;;;;;;;6.50;3.27;;;;;;;;;;1912833;72;21163;-84
2022/09/19 19:10:46;;;;;;;6.15;2.65;;;;;;;;;;1880987;75;21147;-84
2022/09/19 19:13:16;;;;;;;6.20;2.90;;;;;;;;;;1919301;74;21116;-84
2022/09/19 19:15:46;;;;;;;9.13;3.60;;;;;;;;;;1931089;73;21116;-83
2022/09/19 19:18:19;;;;;;;6.45;2.92;;;;;;;;;;1929985;72;21136;-84
2022/09/19 19:20:48;;;;;;;6.15;3.37;;;;;;;;;;1932295;74;21607;-84
2022/09/19 19:23:18;;;;;;;6.20;3.20;;;;;;;;;;1899770;74;21108;-83
2022/09/19 19:25:51;;;;;;;6.10;3.47;;;;;;;;;;1946126;72;21165;-84